createdAt,value
2022-09-24T00:01:45.599Z,95.69
2022-09-24T00:04:17.140Z,94.79
2022-09-24T00:06:48.981Z,95.28
2022-09-24T00:09:21.779Z,96.10
2022-09-24T00:11:54.135Z,94.83
2022-09-24T00:14:25.638Z,95.21
2022-09-24T00:16:57.497Z,95.63
2022-09-24T00:19:29.085Z,96.38
2022-09-24T00:22:00.978Z,95.79
2022-09-24T00:25:02.053Z,100.00
2022-09-24T00:27:33.943Z,98.09
2022-09-24T00:30:05.445Z,98.44
2022-09-24T00:32:37.287Z,98.01
2022-09-24T00:35:08.795Z,98.36
2022-09-24T00:37:40.777Z,99.15
2022-09-24T00:40:13.053Z,99.08
2022-09-24T00:42:44.894Z,99.54
2022-09-24T00:45:16.413Z,99.49
2022-09-24T00:47:48.594Z,99.90
2022-09-24T00:50:20.219Z,99.81
2022-09-24T00:52:52.424Z,98.76
2022-09-24T00:55:24.566Z,100.00
2022-09-24T00:57:56.668Z,98.50
2022-09-24T01:00:28.746Z,99.05
2022-09-24T01:03:00.301Z,100.00
2022-09-24T01:05:31.816Z,100.00
2022-09-24T01:08:04.070Z,100.00
2022-09-24T01:11:02.185Z,99.71
2022-09-24T01:13:33.679Z,100.00
2022-09-24T01:16:05.595Z,99.75
2022-09-24T01:18:37.193Z,100.00
2022-09-24T01:21:09.121Z,98.76
2022-09-24T01:23:43.829Z,100.00
2022-09-24T01:26:20.311Z,99.51
2022-09-24T01:28:52.791Z,100.00
2022-09-24T01:31:24.668Z,100.00
2022-09-24T01:33:56.212Z,100.00
2022-09-24T01:36:28.155Z,99.18
2022-09-24T01:38:59.644Z,100.00
2022-09-24T01:41:31.462Z,98.97
2022-09-24T01:44:05.064Z,100.00
2022-09-24T01:46:37.714Z,98.69
2022-09-24T01:49:09.266Z,98.68
2022-09-24T01:51:42.453Z,98.69
2022-09-24T01:54:13.951Z,98.40
2022-09-24T01:56:45.749Z,98.32
2022-09-24T01:59:17.265Z,98.99
2022-09-24T02:01:50.715Z,98.26
2022-09-24T02:04:22.313Z,98.06
2022-09-24T02:06:53.833Z,98.53
2022-09-24T02:09:25.304Z,98.08
2022-09-24T02:11:57.089Z,97.57
2022-09-24T02:14:29.068Z,97.77
2022-09-24T02:17:00.566Z,97.89
2022-09-24T02:19:32.424Z,97.98
2022-09-24T02:22:04.001Z,98.43
2022-09-24T02:24:35.779Z,97.96
2022-09-24T02:27:07.300Z,98.43
2022-09-24T02:29:39.151Z,98.90
2022-09-24T02:32:10.994Z,98.44
2022-09-24T02:34:42.919Z,98.02
2022-09-24T02:37:14.409Z,97.90
2022-09-24T02:39:46.404Z,97.78
2022-09-24T02:42:17.886Z,98.36
2022-09-24T02:44:49.735Z,98.49
2022-09-24T02:47:21.224Z,97.88
2022-09-24T02:49:53.113Z,98.11
2022-09-24T02:52:24.610Z,98.94
2022-09-24T02:54:56.604Z,99.60
2022-09-24T02:57:28.153Z,99.57
2022-09-24T03:00:00.248Z,99.12
2022-09-24T03:02:31.882Z,99.18
2022-09-24T03:05:03.767Z,100.00
2022-09-24T03:07:35.270Z,100.00
2022-09-24T03:10:07.281Z,100.00
2022-09-24T03:12:38.778Z,99.43
2022-09-24T03:15:10.636Z,99.65
2022-09-24T03:17:42.438Z,100.00
2022-09-24T03:20:14.073Z,100.00
2022-09-24T03:22:45.860Z,100.00
2022-09-24T03:25:17.345Z,99.96
2022-09-24T03:27:49.365Z,99.78
2022-09-24T03:30:39.671Z,99.97
2022-09-24T03:33:11.517Z,99.88
2022-09-24T03:35:43.034Z,100.00
2022-09-24T03:38:14.844Z,100.00
2022-09-24T03:40:46.399Z,100.00
2022-09-24T03:43:18.309Z,100.00
2022-09-24T03:45:49.857Z,100.00
2022-09-24T03:48:21.707Z,100.00
2022-09-24T03:50:53.273Z,100.00
2022-09-24T03:53:25.224Z,100.00
2022-09-24T03:55:56.775Z,100.00
2022-09-24T03:58:29.312Z,100.00
2022-09-24T04:01:00.814Z,100.00
2022-09-24T04:03:32.649Z,100.00
2022-09-24T04:06:04.152Z,100.00
2022-09-24T04:08:36.045Z,100.00
2022-09-24T04:11:07.526Z,100.00
2022-09-24T04:13:39.447Z,100.00
2022-09-24T04:16:10.986Z,100.00
2022-09-24T04:18:42.858Z,100.00
2022-09-24T04:21:14.355Z,100.00
2022-09-24T04:23:46.225Z,100.00
2022-09-24T04:26:17.750Z,100.00
2022-09-24T04:28:50.785Z,100.00
2022-09-24T04:31:22.710Z,100.00
2022-09-24T04:33:54.536Z,100.00
2022-09-24T04:36:26.028Z,100.00
2022-09-24T04:38:57.872Z,100.00
2022-09-24T04:41:29.369Z,100.00
2022-09-24T04:44:01.303Z,100.00
2022-09-24T04:46:35.976Z,100.00
2022-09-24T04:49:09.575Z,100.00
2022-09-24T04:51:41.139Z,100.00
2022-09-24T04:54:13.066Z,100.00
2022-09-24T04:56:44.551Z,100.00
2022-09-24T04:59:16.398Z,100.00
2022-09-24T05:01:48.028Z,100.00
2022-09-24T05:04:20.167Z,100.00
2022-09-24T05:06:51.637Z,100.00
2022-09-24T05:09:23.574Z,100.00
2022-09-24T05:11:55.067Z,100.00
2022-09-24T05:14:26.902Z,100.00
2022-09-24T05:16:58.413Z,100.00
2022-09-24T05:19:30.328Z,100.00
2022-09-24T05:22:01.897Z,100.00
2022-09-24T05:24:33.737Z,100.00
2022-09-24T05:27:11.378Z,100.00
2022-09-24T05:29:43.714Z,100.00
2022-09-24T05:32:18.291Z,100.00
2022-09-24T05:34:51.006Z,100.00
2022-09-24T05:37:22.876Z,99.99
2022-09-24T05:39:54.823Z,99.90
2022-09-24T05:42:26.332Z,99.28
2022-09-24T05:44:57.827Z,98.10
2022-09-24T05:47:29.711Z,97.51
2022-09-24T05:50:01.210Z,97.22
2022-09-24T05:52:33.030Z,97.07
2022-09-24T05:55:04.584Z,96.16
2022-09-24T05:57:36.136Z,96.19
2022-09-24T06:00:07.653Z,95.43
2022-09-24T06:02:39.499Z,94.68
2022-09-24T06:05:11.019Z,95.50
2022-09-24T06:07:43.023Z,94.76
2022-09-24T06:10:14.599Z,94.22
2022-09-24T06:12:47.343Z,94.03
2022-09-24T06:15:19.354Z,93.47
2022-09-24T06:17:51.169Z,93.51
2022-09-24T06:20:22.715Z,93.17
2022-09-24T06:22:54.655Z,92.31
2022-09-24T06:25:26.183Z,92.35
2022-09-24T06:28:00.927Z,92.07
2022-09-24T06:30:32.500Z,91.37
2022-09-24T06:33:05.383Z,91.87
2022-09-24T06:35:36.915Z,91.55
2022-09-24T06:38:08.737Z,90.47
2022-09-24T06:40:40.629Z,90.64
2022-09-24T06:43:12.573Z,90.09
2022-09-24T06:45:44.061Z,88.85
2022-09-24T06:48:15.656Z,88.25
2022-09-24T06:50:47.636Z,86.25
2022-09-24T06:53:19.508Z,85.97
2022-09-24T06:55:51.092Z,84.45
2022-09-24T06:58:24.011Z,85.10
2022-09-24T07:00:58.314Z,84.95
2022-09-24T07:03:30.256Z,85.52
2022-09-24T07:06:01.781Z,84.64
2022-09-24T07:08:33.600Z,85.61
2022-09-24T07:11:05.182Z,85.07
2022-09-24T07:13:37.041Z,85.47
2022-09-24T07:16:08.573Z,85.50
2022-09-24T07:18:40.097Z,84.42
2022-09-24T07:21:11.643Z,85.25
2022-09-24T07:23:43.689Z,84.53
2022-09-24T07:26:15.167Z,84.93
2022-09-24T07:28:46.997Z,84.89
2022-09-24T07:31:18.582Z,84.82
2022-09-24T07:33:50.454Z,84.36
2022-09-24T07:36:23.101Z,84.67
2022-09-24T07:38:55.209Z,84.73
2022-09-24T07:41:26.704Z,84.61
2022-09-24T07:43:58.516Z,84.96
2022-09-24T07:46:30.293Z,84.54
2022-09-24T07:49:02.196Z,83.34
2022-09-24T07:51:33.960Z,85.05
2022-09-24T07:54:06.358Z,84.88
2022-09-24T07:56:37.864Z,82.79
2022-09-24T07:59:11.520Z,80.78
2022-09-24T08:01:43.088Z,81.29
2022-09-24T08:04:15.086Z,79.38
2022-09-24T08:06:47.645Z,78.90
2022-09-24T08:09:19.777Z,78.92
2022-09-24T08:11:51.268Z,77.46
2022-09-24T08:14:23.142Z,76.92
2022-09-24T08:16:54.640Z,76.94
2022-09-24T08:19:28.607Z,76.37
2022-09-24T08:22:00.187Z,74.54
2022-09-24T08:24:32.224Z,75.16
2022-09-24T08:27:03.773Z,74.22
2022-09-24T08:29:35.697Z,73.12
2022-09-24T08:32:07.595Z,72.34
2022-09-24T08:34:40.975Z,71.39
2022-09-24T08:37:13.446Z,69.51
2022-09-24T08:39:45.299Z,68.04
2022-09-24T08:42:16.791Z,67.34
2022-09-24T08:45:07.528Z,65.42
2022-09-24T08:47:39.469Z,62.37
2022-09-24T08:50:10.968Z,63.37
2022-09-24T08:52:42.721Z,64.18
2022-09-24T08:55:14.234Z,62.68
2022-09-24T08:57:46.280Z,60.46
2022-09-24T09:00:18.037Z,60.73
2022-09-24T09:02:49.942Z,60.99
2022-09-24T09:05:27.361Z,61.34
2022-09-24T09:07:59.338Z,63.00
2022-09-24T09:10:31.029Z,60.84
2022-09-24T09:13:02.863Z,61.26
2022-09-24T09:15:34.353Z,61.81
2022-09-24T09:18:06.419Z,63.11
2022-09-24T09:20:38.659Z,61.52
2022-09-24T09:23:10.482Z,62.44
2022-09-24T09:25:42.434Z,62.74
2022-09-24T09:28:15.572Z,65.43
2022-09-24T09:30:47.375Z,65.39
2022-09-24T09:33:19.241Z,66.60
2022-09-24T09:35:50.795Z,66.74
2022-09-24T09:38:23.655Z,66.97
2022-09-24T09:40:55.210Z,66.25
2022-09-24T09:43:27.168Z,66.17
2022-09-24T09:45:59.282Z,65.27
2022-09-24T09:48:31.302Z,66.63
2022-09-24T09:51:06.160Z,65.51
2022-09-24T09:53:38.293Z,65.06
2022-09-24T09:56:09.932Z,65.69
2022-09-24T09:58:41.809Z,64.81
2022-09-24T10:01:13.321Z,64.83
2022-09-24T10:03:45.237Z,64.22
2022-09-24T10:06:16.779Z,65.58
2022-09-24T10:08:48.650Z,65.36
2022-09-24T10:11:20.168Z,65.21
2022-09-24T10:13:52.071Z,64.18
2022-09-24T10:16:23.606Z,64.13
2022-09-24T10:18:55.498Z,63.96
2022-09-24T10:21:28.367Z,64.27
2022-09-24T10:24:00.313Z,63.75
2022-09-24T10:26:31.813Z,63.77
2022-09-24T10:29:30.022Z,63.73
2022-09-24T10:32:01.526Z,63.17
2022-09-24T10:34:33.045Z,61.64
2022-09-24T10:37:10.214Z,61.23
2022-09-24T10:39:42.842Z,60.59
2022-09-24T10:42:14.334Z,58.93
2022-09-24T10:44:49.333Z,57.82
2022-09-24T10:47:24.528Z,58.16
2022-09-24T10:49:56.069Z,60.98
2022-09-24T10:52:27.895Z,59.25
2022-09-24T10:54:59.388Z,57.98
2022-09-24T10:57:31.533Z,61.68
2022-09-24T11:00:03.058Z,58.74
2022-09-24T11:02:34.954Z,59.28
2022-09-24T11:05:06.523Z,60.03
2022-09-24T11:07:38.620Z,60.28
2022-09-24T11:10:10.437Z,58.41
2022-09-24T11:12:43.143Z,60.90
2022-09-24T11:15:15.003Z,60.18
2022-09-24T11:17:46.921Z,57.49
2022-09-24T11:20:18.410Z,57.33
2022-09-24T11:22:50.504Z,54.62
2022-09-24T11:25:22.003Z,57.28
2022-09-24T11:27:53.803Z,59.32
2022-09-24T11:30:25.365Z,58.31
2022-09-24T11:32:57.214Z,56.36
2022-09-24T11:35:28.707Z,58.51
2022-09-24T11:38:01.418Z,55.12
2022-09-24T11:40:32.981Z,55.70
2022-09-24T11:43:05.446Z,56.37
2022-09-24T11:45:36.944Z,55.22
2022-09-24T11:48:08.752Z,56.09
2022-09-24T11:50:44.976Z,56.78
2022-09-24T11:53:19.188Z,53.43
2022-09-24T11:55:53.563Z,54.07
2022-09-24T11:58:25.367Z,54.51
2022-09-24T12:00:56.861Z,54.28
2022-09-24T12:03:28.431Z,55.22
2022-09-24T12:06:00.839Z,55.69
2022-09-24T12:08:32.788Z,54.59
2022-09-24T12:11:04.292Z,55.83
2022-09-24T12:13:42.977Z,55.36
2022-09-24T12:16:14.705Z,56.63
2022-09-24T12:18:48.278Z,54.10
2022-09-24T12:21:19.806Z,53.34
2022-09-24T12:23:51.684Z,54.99
2022-09-24T12:26:23.376Z,52.48
2022-09-24T12:29:14.165Z,51.64
2022-09-24T12:32:04.183Z,53.50
2022-09-24T12:34:36.277Z,52.13
2022-09-24T12:37:07.762Z,51.88
2022-09-24T12:39:39.283Z,52.43
2022-09-24T12:42:10.838Z,51.80
2022-09-24T12:44:42.660Z,52.15
2022-09-24T12:47:14.367Z,54.43
2022-09-24T12:49:48.154Z,53.43
2022-09-24T12:52:20.116Z,52.01
2022-09-24T12:54:51.599Z,53.31
2022-09-24T12:57:25.860Z,53.13
2022-09-24T12:59:58.004Z,52.77
2022-09-24T13:02:30.130Z,53.39
2022-09-24T13:05:01.756Z,52.50
2022-09-24T13:07:33.663Z,52.64
2022-09-24T13:10:05.162Z,54.60
2022-09-24T13:12:37.035Z,54.28
2022-09-24T13:15:09.328Z,53.51
2022-09-24T13:17:41.191Z,52.36
2022-09-24T13:20:12.718Z,54.06
2022-09-24T13:22:44.503Z,54.43
2022-09-24T13:25:16.063Z,55.47
2022-09-24T13:27:47.968Z,54.09
2022-09-24T13:30:19.535Z,54.63
2022-09-24T13:32:51.161Z,54.06
2022-09-24T13:35:23.737Z,51.29
2022-09-24T13:37:55.438Z,53.33
2022-09-24T13:40:27.033Z,51.95
2022-09-24T13:42:59.029Z,52.82
2022-09-24T13:45:30.536Z,51.99
2022-09-24T13:48:02.525Z,51.74
2022-09-24T13:50:34.136Z,52.82
2022-09-24T13:53:07.733Z,52.73
2022-09-24T13:55:39.589Z,50.63
2022-09-24T13:58:11.579Z,51.67
2022-09-24T14:00:43.153Z,52.05
2022-09-24T14:03:15.050Z,51.34
2022-09-24T14:05:47.022Z,51.79
2022-09-24T14:08:19.029Z,52.38
2022-09-24T14:10:51.080Z,53.36
2022-09-24T14:13:23.033Z,53.76
2022-09-24T14:15:54.693Z,51.76
2022-09-24T14:18:26.902Z,51.35
2022-09-24T14:20:58.396Z,54.37
2022-09-24T14:23:30.369Z,55.80
2022-09-24T14:26:01.888Z,57.23
2022-09-24T14:28:33.727Z,57.93
2022-09-24T14:31:05.283Z,57.14
2022-09-24T14:33:37.192Z,56.93
2022-09-24T14:36:08.694Z,58.42
2022-09-24T14:38:40.496Z,58.88
2022-09-24T14:41:11.969Z,59.06
2022-09-24T14:43:43.911Z,59.28
2022-09-24T14:46:15.446Z,60.33
2022-09-24T14:48:47.328Z,61.48
2022-09-24T14:51:18.821Z,61.77
2022-09-24T14:53:50.334Z,61.47
2022-09-24T14:56:21.854Z,62.73
2022-09-24T14:58:53.826Z,64.61
2022-09-24T15:01:25.446Z,63.47
2022-09-24T15:03:57.274Z,63.91
2022-09-24T15:06:28.799Z,63.64
2022-09-24T15:09:00.976Z,64.53
2022-09-24T15:11:34.128Z,64.33
2022-09-24T15:14:06.024Z,64.14
2022-09-24T15:16:37.567Z,65.56
2022-09-24T15:19:09.367Z,64.79
2022-09-24T15:21:41.315Z,65.14
2022-09-24T15:24:12.842Z,65.34
2022-09-24T15:26:44.765Z,65.99
2022-09-24T15:29:16.244Z,65.79
2022-09-24T15:31:48.166Z,65.94
2022-09-24T15:34:20.507Z,66.39
2022-09-24T15:36:52.460Z,65.66
2022-09-24T15:39:23.938Z,65.99
2022-09-24T15:41:55.488Z,66.22
2022-09-24T15:44:32.879Z,65.60
2022-09-24T15:47:05.830Z,65.08
2022-09-24T15:49:37.349Z,65.24
2022-09-24T15:52:08.863Z,65.53
2022-09-24T15:54:40.393Z,65.39
2022-09-24T15:57:12.411Z,65.90
2022-09-24T15:59:43.959Z,66.46
2022-09-24T16:02:15.801Z,66.22
2022-09-24T16:04:47.347Z,66.80
2022-09-24T16:07:18.886Z,66.04
2022-09-24T16:09:50.425Z,66.44
2022-09-24T16:12:22.239Z,66.71
2022-09-24T16:14:58.825Z,67.43
2022-09-24T16:17:30.808Z,67.63
2022-09-24T16:20:02.366Z,68.76
2022-09-24T16:22:34.249Z,69.34
2022-09-24T16:25:05.744Z,70.29
2022-09-24T16:27:37.938Z,71.79
2022-09-24T16:30:09.414Z,72.02
2022-09-24T16:32:41.269Z,72.40
2022-09-24T16:35:13.454Z,73.72
2022-09-24T16:37:45.323Z,74.27
2022-09-24T16:40:16.894Z,74.70
2022-09-24T16:42:48.748Z,75.74
2022-09-24T16:45:20.322Z,76.16
2022-09-24T16:47:52.028Z,76.78
2022-09-24T16:50:23.789Z,77.41
2022-09-24T16:52:55.764Z,78.30
2022-09-24T16:55:27.326Z,78.69
2022-09-24T16:57:58.922Z,79.70
2022-09-24T17:00:30.465Z,80.04
2022-09-24T17:03:02.378Z,80.44
2022-09-24T17:05:34.123Z,81.33
2022-09-24T17:08:05.632Z,81.63
2022-09-24T17:10:41.351Z,82.11
2022-09-24T17:13:16.122Z,82.59
2022-09-24T17:15:47.639Z,82.16
2022-09-24T17:18:19.528Z,82.62
2022-09-24T17:20:51.012Z,82.45
2022-09-24T17:23:22.864Z,83.03
2022-09-24T17:25:54.381Z,82.61
2022-09-24T17:28:26.233Z,82.10
2022-09-24T17:30:57.849Z,81.49
2022-09-24T17:33:42.858Z,81.22
2022-09-24T17:36:15.797Z,81.09
2022-09-24T17:38:47.695Z,81.70
2022-09-24T17:41:19.250Z,81.43
2022-09-24T17:43:51.672Z,81.18
2022-09-24T17:46:23.303Z,81.34
2022-09-24T17:48:54.882Z,81.35
2022-09-24T17:51:26.771Z,81.42
2022-09-24T17:53:58.336Z,80.69
2022-09-24T17:56:30.331Z,80.73
2022-09-24T17:59:01.880Z,81.25
2022-09-24T18:01:35.616Z,81.04
2022-09-24T18:04:07.172Z,80.91
2022-09-24T18:06:39.712Z,80.17
2022-09-24T18:09:11.627Z,80.79
2022-09-24T18:11:43.252Z,80.42
2022-09-24T18:14:14.782Z,80.76
2022-09-24T18:16:46.325Z,81.04
2022-09-24T18:19:17.874Z,81.42
2022-09-24T18:21:50.133Z,82.49
2022-09-24T18:24:22.914Z,82.27
2022-09-24T18:26:54.783Z,82.81
2022-09-24T18:29:26.251Z,82.93
2022-09-24T18:31:58.059Z,82.97
2022-09-24T18:34:29.852Z,83.54
2022-09-24T18:37:01.761Z,83.80
2022-09-24T18:39:33.309Z,83.77
2022-09-24T18:42:04.850Z,84.39
2022-09-24T18:44:36.326Z,84.28
2022-09-24T18:47:08.149Z,84.39
2022-09-24T18:49:39.638Z,84.62
2022-09-24T18:52:11.471Z,84.95
2022-09-24T18:54:42.941Z,84.63
2022-09-24T18:57:14.762Z,84.47
2022-09-24T18:59:46.917Z,85.23
2022-09-24T19:02:18.977Z,84.92
2022-09-24T19:04:50.546Z,85.01
2022-09-24T19:07:22.295Z,85.55
2022-09-24T19:09:54.029Z,84.98
2022-09-24T19:12:26.103Z,85.08
2022-09-24T19:14:58.672Z,85.01
2022-09-24T19:17:30.483Z,85.20
2022-09-24T19:20:01.960Z,84.56
2022-09-24T19:22:34.130Z,85.20
2022-09-24T19:25:05.610Z,84.50
2022-09-24T19:27:37.419Z,86.07
2022-09-24T19:30:08.890Z,86.64
2022-09-24T19:32:41.100Z,88.01
2022-09-24T19:35:12.756Z,87.43
2022-09-24T19:37:44.546Z,88.93
2022-09-24T19:40:16.285Z,88.28
2022-09-24T19:42:48.483Z,88.68
2022-09-24T19:45:19.982Z,88.53
2022-09-24T19:47:52.245Z,89.64
2022-09-24T19:50:23.766Z,88.70
2022-09-24T19:52:56.230Z,89.21
2022-09-24T19:55:28.867Z,88.84
2022-09-24T19:58:01.775Z,88.83
2022-09-24T20:00:33.515Z,88.74
2022-09-24T20:03:05.425Z,88.94
2022-09-24T20:05:37.155Z,88.69
2022-09-24T20:08:11.500Z,88.54
2022-09-24T20:10:44.605Z,88.78
2022-09-24T20:13:17.345Z,88.47
2022-09-24T20:15:48.923Z,88.52
2022-09-24T20:18:20.969Z,88.54
2022-09-24T20:20:55.549Z,89.36
2022-09-24T20:23:27.469Z,88.46
2022-09-24T20:26:17.691Z,89.28
2022-09-24T20:28:49.165Z,88.91
2022-09-24T20:31:24.148Z,89.08
2022-09-24T20:33:55.738Z,89.25
2022-09-24T20:36:27.561Z,88.50
2022-09-24T20:38:59.592Z,88.19
2022-09-24T20:41:31.124Z,88.48
2022-09-24T20:44:02.712Z,88.25
2022-09-24T20:46:34.650Z,88.57
2022-09-24T20:49:06.148Z,89.06
2022-09-24T20:51:39.116Z,88.87
2022-09-24T20:54:10.652Z,89.68
2022-09-24T20:56:42.578Z,89.24
2022-09-24T20:59:14.092Z,89.04
2022-09-24T21:01:46.137Z,88.99
2022-09-24T21:04:19.785Z,90.34
2022-09-24T21:06:51.785Z,89.22
2022-09-24T21:09:23.299Z,89.44
2022-09-24T21:11:55.146Z,88.68
2022-09-24T21:14:28.875Z,89.00
2022-09-24T21:17:00.730Z,88.50
2022-09-24T21:19:36.156Z,89.57
2022-09-24T21:22:07.985Z,89.73
2022-09-24T21:24:41.061Z,88.97
2022-09-24T21:27:12.573Z,88.44
2022-09-24T21:29:44.057Z,88.92
2022-09-24T21:32:17.783Z,87.88
2022-09-24T21:34:49.273Z,88.96
2022-09-24T21:37:21.239Z,88.65
2022-09-24T21:39:52.715Z,89.13
2022-09-24T21:42:28.127Z,89.37
2022-09-24T21:45:00.195Z,89.35
2022-09-24T21:47:31.967Z,89.13
2022-09-24T21:50:03.558Z,89.07
2022-09-24T21:52:35.422Z,88.11
2022-09-24T21:55:06.918Z,88.50
2022-09-24T21:57:38.861Z,88.57
2022-09-24T22:00:11.112Z,87.87
2022-09-24T22:02:45.581Z,87.94
2022-09-24T22:05:19.660Z,87.49
2022-09-24T22:07:51.853Z,87.09
2022-09-24T22:10:23.833Z,86.88
2022-09-24T22:12:56.538Z,86.94
2022-09-24T22:15:28.021Z,87.24
2022-09-24T22:18:01.235Z,87.07
2022-09-24T22:20:32.750Z,87.53
2022-09-24T22:23:04.507Z,86.94
2022-09-24T22:25:35.997Z,87.15
2022-09-24T22:28:07.848Z,86.97
2022-09-24T22:30:39.675Z,87.16
2022-09-24T22:33:31.465Z,86.99
2022-09-24T22:36:06.469Z,88.32
2022-09-24T22:38:38.262Z,87.55
2022-09-24T22:41:11.068Z,88.59
2022-09-24T22:43:42.951Z,88.58
2022-09-24T22:46:14.504Z,89.22
2022-09-24T22:48:47.672Z,89.17
2022-09-24T22:51:19.648Z,89.13
2022-09-24T22:53:51.119Z,89.63
2022-09-24T22:56:22.927Z,89.38
2022-09-24T22:58:54.411Z,89.69
2022-09-24T23:01:25.942Z,89.12
2022-09-24T23:03:57.533Z,89.46
2022-09-24T23:06:30.624Z,88.94
2022-09-24T23:09:02.116Z,88.93
2022-09-24T23:11:33.995Z,88.96
2022-09-24T23:14:05.601Z,88.76
2022-09-24T23:16:37.556Z,89.87
2022-09-24T23:19:09.097Z,89.97
2022-09-24T23:21:41.889Z,89.13
2022-09-24T23:24:13.450Z,89.78
2022-09-24T23:26:45.294Z,89.25
2022-09-24T23:29:16.793Z,88.80
2022-09-24T23:31:48.298Z,89.44
2022-09-24T23:34:20.283Z,89.05
2022-09-24T23:36:52.073Z,88.22
2022-09-24T23:39:23.540Z,88.34
2022-09-24T23:41:55.777Z,88.54
2022-09-24T23:44:27.292Z,87.90
2022-09-24T23:46:59.104Z,86.95
2022-09-24T23:49:30.872Z,87.07
2022-09-24T23:52:02.504Z,86.77
2022-09-24T23:54:36.440Z,86.11
2022-09-24T23:57:08.407Z,85.41
2022-09-24T23:59:39.954Z,85.69
